<?xml version="1.0" encoding="UTF-8"?>
<gpx
  version="1.0"
  creator="GPSBabel - http://www.gpsbabel.org"
  xmlns:xsi="http://www.w3.org/2001/XMLSchema-instance"
  xmlns="http://www.topografix.com/GPX/1/0"
  xsi:schemaLocation="http://www.topografix.com/GPX/1/0 http://www.topografix.com/GPX/1/0/gpx.xsd">
<time>2012-03-24T11:14:45Z</time>
<bounds minlat="46.473519802" minlon="6.708934307" maxlat="46.494977474" maxlon="6.811544895"/>
<trk>
  <name>23-MAR-12</name>
<trkseg>
<trkpt lat="46.494462490" lon="6.709449291">
  <ele>378.896851</ele>
  <time>2012-03-23T13:45:09Z</time>
</trkpt>
<trkpt lat="46.494441032" lon="6.709384918">
  <ele>391.393799</ele>
  <time>2012-03-23T13:46:15Z</time>
</trkpt>
<trkpt lat="46.494462490" lon="6.709384918">
  <ele>388.510010</ele>
  <time>2012-03-23T13:47:12Z</time>
</trkpt>
<trkpt lat="46.494419575" lon="6.709427834">
  <ele>394.277954</ele>
  <time>2012-03-23T13:47:30Z</time>
</trkpt>
<trkpt lat="46.494441032" lon="6.709427834">
  <ele>393.316528</ele>
  <time>2012-03-23T13:48:03Z</time>
</trkpt>
<trkpt lat="46.494612694" lon="6.709105968">
  <ele>388.990601</ele>
  <time>2012-03-23T13:48:31Z</time>
</trkpt>
<trkpt lat="46.494741440" lon="6.708934307">
  <ele>388.990601</ele>
  <time>2012-03-23T13:48:41Z</time>
</trkpt>
<trkpt lat="46.494870186" lon="6.709084511">
  <ele>389.951904</ele>
  <time>2012-03-23T13:48:51Z</time>
</trkpt>
<trkpt lat="46.494934559" lon="6.709213257">
  <ele>389.951904</ele>
  <time>2012-03-23T13:48:58Z</time>
</trkpt>
<trkpt lat="46.494934559" lon="6.709320545">
  <ele>389.471191</ele>
  <time>2012-03-23T13:49:03Z</time>
</trkpt>
<trkpt lat="46.494698524" lon="6.709878445">
  <ele>390.913208</ele>
  <time>2012-03-23T13:49:27Z</time>
</trkpt>
<trkpt lat="46.494483948" lon="6.710221767">
  <ele>392.355347</ele>
  <time>2012-03-23T13:49:45Z</time>
</trkpt>
<trkpt lat="46.493539810" lon="6.710994244">
  <ele>390.432617</ele>
  <time>2012-03-23T13:50:17Z</time>
</trkpt>
<trkpt lat="46.493217945" lon="6.711487770">
  <ele>391.874512</ele>
  <time>2012-03-23T13:50:26Z</time>
</trkpt>
<trkpt lat="46.493110657" lon="6.711723804">
  <ele>394.758545</ele>
  <time>2012-03-23T13:50:36Z</time>
</trkpt>
<trkpt lat="46.492874622" lon="6.712088585">
  <ele>397.642456</ele>
  <time>2012-03-23T13:50:51Z</time>
</trkpt>
<trkpt lat="46.492466927" lon="6.712517738">
  <ele>400.526489</ele>
  <time>2012-03-23T13:51:12Z</time>
</trkpt>
<trkpt lat="46.492209435" lon="6.712882519">
  <ele>402.929688</ele>
  <time>2012-03-23T13:51:27Z</time>
</trkpt>
<trkpt lat="46.492016315" lon="6.713311672">
  <ele>403.410400</ele>
  <time>2012-03-23T13:51:40Z</time>
</trkpt>
<trkpt lat="46.491973400" lon="6.714320183">
  <ele>403.891113</ele>
  <time>2012-03-23T13:52:02Z</time>
</trkpt>
<trkpt lat="46.491715908" lon="6.715414524">
  <ele>404.852295</ele>
  <time>2012-03-23T13:52:19Z</time>
</trkpt>
<trkpt lat="46.491265297" lon="6.716251373">
  <ele>410.620239</ele>
  <time>2012-03-23T13:52:46Z</time>
</trkpt>
<trkpt lat="46.490857601" lon="6.716809273">
  <ele>410.620239</ele>
  <time>2012-03-23T13:53:02Z</time>
</trkpt>
<trkpt lat="46.490643024" lon="6.717174053">
  <ele>407.736328</ele>
  <time>2012-03-23T13:53:08Z</time>
</trkpt>
<trkpt lat="46.489827633" lon="6.717967987">
  <ele>400.045898</ele>
  <time>2012-03-23T13:53:21Z</time>
</trkpt>
<trkpt lat="46.489419937" lon="6.718633175">
  <ele>397.161743</ele>
  <time>2012-03-23T13:53:29Z</time>
</trkpt>
<trkpt lat="46.489076614" lon="6.719276905">
  <ele>399.565063</ele>
  <time>2012-03-23T13:53:38Z</time>
</trkpt>
<trkpt lat="46.488518715" lon="6.720178127">
  <ele>401.968506</ele>
  <time>2012-03-23T13:54:01Z</time>
</trkpt>
<trkpt lat="46.488239765" lon="6.720907688">
  <ele>403.891113</ele>
  <time>2012-03-23T13:54:14Z</time>
</trkpt>
<trkpt lat="46.488153934" lon="6.721508503">
  <ele>405.813721</ele>
  <time>2012-03-23T13:54:26Z</time>
</trkpt>
<trkpt lat="46.488196850" lon="6.722023487">
  <ele>403.891113</ele>
  <time>2012-03-23T13:54:36Z</time>
</trkpt>
<trkpt lat="46.488239765" lon="6.723525524">
  <ele>397.161743</ele>
  <time>2012-03-23T13:54:53Z</time>
</trkpt>
<trkpt lat="46.488389969" lon="6.724147797">
  <ele>392.835938</ele>
  <time>2012-03-23T13:55:00Z</time>
</trkpt>
<trkpt lat="46.488389969" lon="6.725091934">
  <ele>390.913208</ele>
  <time>2012-03-23T13:55:13Z</time>
</trkpt>
<trkpt lat="46.488261223" lon="6.725521088">
  <ele>392.835938</ele>
  <time>2012-03-23T13:55:23Z</time>
</trkpt>
<trkpt lat="46.488454342" lon="6.726078987">
  <ele>394.277954</ele>
  <time>2012-03-23T13:55:35Z</time>
</trkpt>
<trkpt lat="46.488518715" lon="6.726379395">
  <ele>393.797241</ele>
  <time>2012-03-23T13:55:41Z</time>
</trkpt>
<trkpt lat="46.488754749" lon="6.726894379">
  <ele>392.835938</ele>
  <time>2012-03-23T13:55:52Z</time>
</trkpt>
<trkpt lat="46.489033699" lon="6.726894379">
  <ele>392.355347</ele>
  <time>2012-03-23T13:55:59Z</time>
</trkpt>
<trkpt lat="46.489076614" lon="6.727023125">
  <ele>392.355347</ele>
  <time>2012-03-23T13:56:02Z</time>
</trkpt>
<trkpt lat="46.488990784" lon="6.727473736">
  <ele>391.393799</ele>
  <time>2012-03-23T13:56:08Z</time>
</trkpt>
<trkpt lat="46.489226818" lon="6.728653908">
  <ele>391.393799</ele>
  <time>2012-03-23T13:56:26Z</time>
</trkpt>
<trkpt lat="46.489806175" lon="6.730370522">
  <ele>393.316528</ele>
  <time>2012-03-23T13:57:01Z</time>
</trkpt>
<trkpt lat="46.490299702" lon="6.731700897">
  <ele>394.277954</ele>
  <time>2012-03-23T13:57:29Z</time>
</trkpt>
<trkpt lat="46.490771770" lon="6.733675003">
  <ele>390.432617</ele>
  <time>2012-03-23T13:57:56Z</time>
</trkpt>
<trkpt lat="46.490964890" lon="6.734275818">
  <ele>390.432617</ele>
  <time>2012-03-23T13:58:06Z</time>
</trkpt>
<trkpt lat="46.491115093" lon="6.735198498">
  <ele>391.393799</ele>
  <time>2012-03-23T13:58:22Z</time>
</trkpt>
<trkpt lat="46.491265297" lon="6.735584736">
  <ele>393.316528</ele>
  <time>2012-03-23T13:58:31Z</time>
</trkpt>
<trkpt lat="46.491329670" lon="6.736679077">
  <ele>399.084351</ele>
  <time>2012-03-23T13:59:00Z</time>
</trkpt>
<trkpt lat="46.491329670" lon="6.737408638">
  <ele>399.084351</ele>
  <time>2012-03-23T13:59:14Z</time>
</trkpt>
<trkpt lat="46.491093636" lon="6.738996506">
  <ele>400.526489</ele>
  <time>2012-03-23T13:59:48Z</time>
</trkpt>
<trkpt lat="46.491158009" lon="6.739275455">
  <ele>402.929688</ele>
  <time>2012-03-23T13:59:59Z</time>
</trkpt>
<trkpt lat="46.491394043" lon="6.739683151">
  <ele>409.659058</ele>
  <time>2012-03-23T14:00:28Z</time>
</trkpt>
<trkpt lat="46.491479874" lon="6.739940643">
  <ele>412.542847</ele>
  <time>2012-03-23T14:00:43Z</time>
</trkpt>
<trkpt lat="46.491501331" lon="6.740670204">
  <ele>422.636719</ele>
  <time>2012-03-23T14:01:28Z</time>
</trkpt>
<trkpt lat="46.491544247" lon="6.740949154">
  <ele>426.001343</ele>
  <time>2012-03-23T14:01:43Z</time>
</trkpt>
<trkpt lat="46.491630077" lon="6.741163731">
  <ele>429.365967</ele>
  <time>2012-03-23T14:01:56Z</time>
</trkpt>
<trkpt lat="46.491715908" lon="6.741549969">
  <ele>434.172607</ele>
  <time>2012-03-23T14:02:17Z</time>
</trkpt>
<trkpt lat="46.491930485" lon="6.742880344">
  <ele>443.305054</ele>
  <time>2012-03-23T14:03:18Z</time>
</trkpt>
<trkpt lat="46.491951942" lon="6.743245125">
  <ele>446.669678</ele>
  <time>2012-03-23T14:03:36Z</time>
</trkpt>
<trkpt lat="46.491930485" lon="6.743652821">
  <ele>452.437622</ele>
  <time>2012-03-23T14:03:59Z</time>
</trkpt>
<trkpt lat="46.491458416" lon="6.743996143">
  <ele>446.669678</ele>
  <time>2012-03-23T14:04:14Z</time>
</trkpt>
<trkpt lat="46.491372585" lon="6.744318008">
  <ele>442.824463</ele>
  <time>2012-03-23T14:04:19Z</time>
</trkpt>
<trkpt lat="46.491179466" lon="6.744639874">
  <ele>436.575928</ele>
  <time>2012-03-23T14:04:25Z</time>
</trkpt>
<trkpt lat="46.490857601" lon="6.744768620">
  <ele>429.846558</ele>
  <time>2012-03-23T14:04:31Z</time>
</trkpt>
<trkpt lat="46.490750313" lon="6.744983196">
  <ele>427.443359</ele>
  <time>2012-03-23T14:04:35Z</time>
</trkpt>
<trkpt lat="46.490685940" lon="6.745562553">
  <ele>428.404663</ele>
  <time>2012-03-23T14:04:45Z</time>
</trkpt>
<trkpt lat="46.490621567" lon="6.745862961">
  <ele>427.443359</ele>
  <time>2012-03-23T14:04:51Z</time>
</trkpt>
<trkpt lat="46.489999294" lon="6.747000217">
  <ele>426.482056</ele>
  <time>2012-03-23T14:05:12Z</time>
</trkpt>
<trkpt lat="46.489613056" lon="6.748051643">
  <ele>427.923950</ele>
  <time>2012-03-23T14:05:30Z</time>
</trkpt>
<trkpt lat="46.489441395" lon="6.748995781">
  <ele>433.691895</ele>
  <time>2012-03-23T14:05:57Z</time>
</trkpt>
<trkpt lat="46.489419937" lon="6.749296188">
  <ele>435.614502</ele>
  <time>2012-03-23T14:06:08Z</time>
</trkpt>
<trkpt lat="46.489312649" lon="6.749532223">
  <ele>438.017822</ele>
  <time>2012-03-23T14:06:42Z</time>
</trkpt>
<trkpt lat="46.488969326" lon="6.749918461">
  <ele>438.498535</ele>
  <time>2012-03-23T14:06:57Z</time>
</trkpt>
<trkpt lat="46.488626003" lon="6.750240326">
  <ele>439.940430</ele>
  <time>2012-03-23T14:07:11Z</time>
</trkpt>
<trkpt lat="46.488368511" lon="6.750798225">
  <ele>438.498535</ele>
  <time>2012-03-23T14:07:23Z</time>
</trkpt>
<trkpt lat="46.488325596" lon="6.751163006">
  <ele>436.095215</ele>
  <time>2012-03-23T14:07:28Z</time>
</trkpt>
<trkpt lat="46.487789154" lon="6.752386093">
  <ele>438.498535</ele>
  <time>2012-03-23T14:07:52Z</time>
</trkpt>
<trkpt lat="46.486909389" lon="6.753952503">
  <ele>435.133911</ele>
  <time>2012-03-23T14:08:17Z</time>
</trkpt>
<trkpt lat="46.486673355" lon="6.754295826">
  <ele>438.017822</ele>
  <time>2012-03-23T14:08:28Z</time>
</trkpt>
<trkpt lat="46.485922337" lon="6.755003929">
  <ele>435.133911</ele>
  <time>2012-03-23T14:08:46Z</time>
</trkpt>
<trkpt lat="46.485664845" lon="6.755433083">
  <ele>437.537109</ele>
  <time>2012-03-23T14:08:54Z</time>
</trkpt>
<trkpt lat="46.485278606" lon="6.756312847">
  <ele>443.785767</ele>
  <time>2012-03-23T14:09:21Z</time>
</trkpt>
<trkpt lat="46.484956741" lon="6.756742001">
  <ele>444.747070</ele>
  <time>2012-03-23T14:09:34Z</time>
</trkpt>
<trkpt lat="46.484656334" lon="6.757256985">
  <ele>444.266479</ele>
  <time>2012-03-23T14:09:46Z</time>
</trkpt>
<trkpt lat="46.484184265" lon="6.757900715">
  <ele>444.266479</ele>
  <time>2012-03-23T14:10:02Z</time>
</trkpt>
<trkpt lat="46.483948231" lon="6.758093834">
  <ele>441.863159</ele>
  <time>2012-03-23T14:10:07Z</time>
</trkpt>
<trkpt lat="46.482446194" lon="6.759896278">
  <ele>444.747070</ele>
  <time>2012-03-23T14:10:54Z</time>
</trkpt>
<trkpt lat="46.482059956" lon="6.760282516">
  <ele>443.305054</ele>
  <time>2012-03-23T14:11:05Z</time>
</trkpt>
<trkpt lat="46.481716633" lon="6.760840416">
  <ele>442.343872</ele>
  <time>2012-03-23T14:11:15Z</time>
</trkpt>
<trkpt lat="46.481566429" lon="6.761205196">
  <ele>444.266479</ele>
  <time>2012-03-23T14:11:23Z</time>
</trkpt>
<trkpt lat="46.481158733" lon="6.761870384">
  <ele>441.863159</ele>
  <time>2012-03-23T14:11:37Z</time>
</trkpt>
<trkpt lat="46.480729580" lon="6.762728691">
  <ele>442.343872</ele>
  <time>2012-03-23T14:11:50Z</time>
</trkpt>
<trkpt lat="46.480515003" lon="6.763243675">
  <ele>441.863159</ele>
  <time>2012-03-23T14:12:02Z</time>
</trkpt>
<trkpt lat="46.480085850" lon="6.763823032">
  <ele>435.133911</ele>
  <time>2012-03-23T14:12:13Z</time>
</trkpt>
<trkpt lat="46.479763985" lon="6.764552593">
  <ele>433.691895</ele>
  <time>2012-03-23T14:12:21Z</time>
</trkpt>
<trkpt lat="46.479592323" lon="6.765282154">
  <ele>432.730713</ele>
  <time>2012-03-23T14:12:33Z</time>
</trkpt>
<trkpt lat="46.479141712" lon="6.766505241">
  <ele>435.614502</ele>
  <time>2012-03-23T14:12:57Z</time>
</trkpt>
<trkpt lat="46.478862762" lon="6.767127514">
  <ele>435.133911</ele>
  <time>2012-03-23T14:13:10Z</time>
</trkpt>
<trkpt lat="46.478648186" lon="6.767728329">
  <ele>435.614502</ele>
  <time>2012-03-23T14:13:20Z</time>
</trkpt>
<trkpt lat="46.478240490" lon="6.769552231">
  <ele>446.189087</ele>
  <time>2012-03-23T14:14:14Z</time>
</trkpt>
<trkpt lat="46.478047371" lon="6.770024300">
  <ele>448.592407</ele>
  <time>2012-03-23T14:14:30Z</time>
</trkpt>
<trkpt lat="46.477897167" lon="6.770603657">
  <ele>450.515015</ele>
  <time>2012-03-23T14:14:48Z</time>
</trkpt>
<trkpt lat="46.477725506" lon="6.771118641">
  <ele>451.957031</ele>
  <time>2012-03-23T14:15:01Z</time>
</trkpt>
<trkpt lat="46.477403641" lon="6.771612167">
  <ele>450.034424</ele>
  <time>2012-03-23T14:15:11Z</time>
</trkpt>
<trkpt lat="46.477167606" lon="6.772534847">
  <ele>454.360229</ele>
  <time>2012-03-23T14:15:33Z</time>
</trkpt>
<trkpt lat="46.477081776" lon="6.773006916">
  <ele>458.205566</ele>
  <time>2012-03-23T14:15:51Z</time>
</trkpt>
<trkpt lat="46.476674080" lon="6.774122715">
  <ele>463.492798</ele>
  <time>2012-03-23T14:16:25Z</time>
</trkpt>
<trkpt lat="46.476502419" lon="6.774680614">
  <ele>465.415527</ele>
  <time>2012-03-23T14:16:42Z</time>
</trkpt>
<trkpt lat="46.476352215" lon="6.774916649">
  <ele>463.492798</ele>
  <time>2012-03-23T14:16:50Z</time>
</trkpt>
<trkpt lat="46.476180553" lon="6.775538921">
  <ele>458.205566</ele>
  <time>2012-03-23T14:17:00Z</time>
</trkpt>
<trkpt lat="46.476073265" lon="6.776268482">
  <ele>448.111816</ele>
  <time>2012-03-23T14:17:09Z</time>
</trkpt>
<trkpt lat="46.475965977" lon="6.776697636">
  <ele>441.863159</ele>
  <time>2012-03-23T14:17:14Z</time>
</trkpt>
<trkpt lat="46.476116180" lon="6.777083874">
  <ele>435.614502</ele>
  <time>2012-03-23T14:17:20Z</time>
</trkpt>
<trkpt lat="46.476159096" lon="6.777105331">
  <ele>434.653320</ele>
  <time>2012-03-23T14:17:21Z</time>
</trkpt>
<trkpt lat="46.476287842" lon="6.777384281">
  <ele>433.691895</ele>
  <time>2012-03-23T14:17:27Z</time>
</trkpt>
<trkpt lat="46.476030350" lon="6.777770519">
  <ele>434.653320</ele>
  <time>2012-03-23T14:17:39Z</time>
</trkpt>
<trkpt lat="46.476330757" lon="6.778349876">
  <ele>440.421265</ele>
  <time>2012-03-23T14:18:10Z</time>
</trkpt>
<trkpt lat="46.476416588" lon="6.778607368">
  <ele>446.669678</ele>
  <time>2012-03-23T14:18:24Z</time>
</trkpt>
<trkpt lat="46.476459503" lon="6.778650284">
  <ele>447.630981</ele>
  <time>2012-03-23T14:18:26Z</time>
</trkpt>
<trkpt lat="46.476845741" lon="6.778521538">
  <ele>449.072998</ele>
  <time>2012-03-23T14:18:46Z</time>
</trkpt>
<trkpt lat="46.476953030" lon="6.778542995">
  <ele>449.072998</ele>
  <time>2012-03-23T14:18:52Z</time>
</trkpt>
<trkpt lat="46.476953030" lon="6.778757572">
  <ele>449.553711</ele>
  <time>2012-03-23T14:18:57Z</time>
</trkpt>
<trkpt lat="46.477038860" lon="6.779015064">
  <ele>449.072998</ele>
  <time>2012-03-23T14:19:01Z</time>
</trkpt>
<trkpt lat="46.477167606" lon="6.779787540">
  <ele>448.111816</ele>
  <time>2012-03-23T14:19:10Z</time>
</trkpt>
<trkpt lat="46.477189064" lon="6.780538559">
  <ele>450.995605</ele>
  <time>2012-03-23T14:19:20Z</time>
</trkpt>
<trkpt lat="46.477038860" lon="6.781203747">
  <ele>451.476318</ele>
  <time>2012-03-23T14:19:34Z</time>
</trkpt>
<trkpt lat="46.476223469" lon="6.782684326">
  <ele>444.747070</ele>
  <time>2012-03-23T14:19:58Z</time>
</trkpt>
<trkpt lat="46.475858688" lon="6.783242226">
  <ele>437.537109</ele>
  <time>2012-03-23T14:20:05Z</time>
</trkpt>
<trkpt lat="46.475665569" lon="6.784121990">
  <ele>431.288574</ele>
  <time>2012-03-23T14:20:13Z</time>
</trkpt>
<trkpt lat="46.475450993" lon="6.784765720">
  <ele>426.962769</ele>
  <time>2012-03-23T14:20:20Z</time>
</trkpt>
<trkpt lat="46.475343704" lon="6.785001755">
  <ele>424.559448</ele>
  <time>2012-03-23T14:20:24Z</time>
</trkpt>
<trkpt lat="46.475429535" lon="6.785345078">
  <ele>419.752808</ele>
  <time>2012-03-23T14:20:30Z</time>
</trkpt>
<trkpt lat="46.475708485" lon="6.785602570">
  <ele>416.388184</ele>
  <time>2012-03-23T14:20:34Z</time>
</trkpt>
<trkpt lat="46.475837231" lon="6.786010265">
  <ele>420.714111</ele>
  <time>2012-03-23T14:20:40Z</time>
</trkpt>
<trkpt lat="46.475772858" lon="6.787405014">
  <ele>419.272217</ele>
  <time>2012-03-23T14:21:08Z</time>
</trkpt>
<trkpt lat="46.475644112" lon="6.787898540">
  <ele>417.349609</ele>
  <time>2012-03-23T14:21:16Z</time>
</trkpt>
<trkpt lat="46.475601196" lon="6.788713932">
  <ele>413.504272</ele>
  <time>2012-03-23T14:21:24Z</time>
</trkpt>
<trkpt lat="46.475472450" lon="6.789228916">
  <ele>410.139648</ele>
  <time>2012-03-23T14:21:29Z</time>
</trkpt>
<trkpt lat="46.475214958" lon="6.789937019">
  <ele>411.100952</ele>
  <time>2012-03-23T14:21:37Z</time>
</trkpt>
<trkpt lat="46.475043297" lon="6.790258884">
  <ele>410.620239</ele>
  <time>2012-03-23T14:21:42Z</time>
</trkpt>
<trkpt lat="46.474699974" lon="6.791481972">
  <ele>412.062256</ele>
  <time>2012-03-23T14:22:00Z</time>
</trkpt>
<trkpt lat="46.474657059" lon="6.791911125">
  <ele>416.388184</ele>
  <time>2012-03-23T14:22:13Z</time>
</trkpt>
<trkpt lat="46.474442482" lon="6.792919636">
  <ele>422.156006</ele>
  <time>2012-03-23T14:22:44Z</time>
</trkpt>
<trkpt lat="46.474313736" lon="6.793756485">
  <ele>427.443359</ele>
  <time>2012-03-23T14:23:14Z</time>
</trkpt>
<trkpt lat="46.474313736" lon="6.794078350">
  <ele>429.846558</ele>
  <time>2012-03-23T14:23:30Z</time>
</trkpt>
<trkpt lat="46.474270821" lon="6.794035435">
  <ele>435.133911</ele>
  <time>2012-03-23T14:24:31Z</time>
</trkpt>
<trkpt lat="46.474378109" lon="6.793863773">
  <ele>440.421265</ele>
  <time>2012-03-23T14:26:14Z</time>
</trkpt>
<trkpt lat="46.474678516" lon="6.793177128">
  <ele>449.553711</ele>
  <time>2012-03-23T14:27:02Z</time>
</trkpt>
<trkpt lat="46.474978924" lon="6.792833805">
  <ele>454.840820</ele>
  <time>2012-03-23T14:27:39Z</time>
</trkpt>
<trkpt lat="46.475064754" lon="6.792597771">
  <ele>457.724976</ele>
  <time>2012-03-23T14:27:54Z</time>
</trkpt>
<trkpt lat="46.475107670" lon="6.792597771">
  <ele>458.205566</ele>
  <time>2012-03-23T14:27:58Z</time>
</trkpt>
<trkpt lat="46.475129128" lon="6.792640686">
  <ele>458.686157</ele>
  <time>2012-03-23T14:28:01Z</time>
</trkpt>
<trkpt lat="46.475086212" lon="6.792962551">
  <ele>459.647583</ele>
  <time>2012-03-23T14:28:14Z</time>
</trkpt>
<trkpt lat="46.474506855" lon="6.794443130">
  <ele>456.282959</ele>
  <time>2012-03-23T14:28:50Z</time>
</trkpt>
<trkpt lat="46.474313736" lon="6.795430183">
  <ele>453.879639</ele>
  <time>2012-03-23T14:29:03Z</time>
</trkpt>
<trkpt lat="46.474335194" lon="6.795859337">
  <ele>456.282959</ele>
  <time>2012-03-23T14:29:12Z</time>
</trkpt>
<trkpt lat="46.474184990" lon="6.796181202">
  <ele>454.360229</ele>
  <time>2012-03-23T14:29:20Z</time>
</trkpt>
<trkpt lat="46.473884583" lon="6.797189713">
  <ele>447.630981</ele>
  <time>2012-03-23T14:29:31Z</time>
</trkpt>
<trkpt lat="46.473777294" lon="6.798219681">
  <ele>445.708374</ele>
  <time>2012-03-23T14:29:41Z</time>
</trkpt>
<trkpt lat="46.473777294" lon="6.798305511">
  <ele>446.189087</ele>
  <time>2012-03-23T14:29:42Z</time>
</trkpt>
<trkpt lat="46.473863125" lon="6.798563004">
  <ele>449.072998</ele>
  <time>2012-03-23T14:29:50Z</time>
</trkpt>
<trkpt lat="46.474099159" lon="6.798927784">
  <ele>451.957031</ele>
  <time>2012-03-23T14:30:09Z</time>
</trkpt>
<trkpt lat="46.474077702" lon="6.799099445">
  <ele>450.034424</ele>
  <time>2012-03-23T14:30:12Z</time>
</trkpt>
<trkpt lat="46.474184990" lon="6.799850464">
  <ele>466.376709</ele>
  <time>2012-03-23T14:31:25Z</time>
</trkpt>
<trkpt lat="46.474142075" lon="6.800043583">
  <ele>466.376709</ele>
  <time>2012-03-23T14:31:34Z</time>
</trkpt>
<trkpt lat="46.473991871" lon="6.800408363">
  <ele>469.260742</ele>
  <time>2012-03-23T14:31:52Z</time>
</trkpt>
<trkpt lat="46.473906040" lon="6.800880432">
  <ele>469.741333</ele>
  <time>2012-03-23T14:32:07Z</time>
</trkpt>
<trkpt lat="46.473841667" lon="6.802704334">
  <ele>472.144653</ele>
  <time>2012-03-23T14:32:58Z</time>
</trkpt>
<trkpt lat="46.473884583" lon="6.803283691">
  <ele>478.873901</ele>
  <time>2012-03-23T14:33:48Z</time>
</trkpt>
<trkpt lat="46.473798752" lon="6.803691387">
  <ele>481.277222</ele>
  <time>2012-03-23T14:34:03Z</time>
</trkpt>
<trkpt lat="46.473691463" lon="6.804528236">
  <ele>487.045044</ele>
  <time>2012-03-23T14:34:35Z</time>
</trkpt>
<trkpt lat="46.473519802" lon="6.805322170">
  <ele>492.332397</ele>
  <time>2012-03-23T14:35:20Z</time>
</trkpt>
<trkpt lat="46.473541260" lon="6.805558205">
  <ele>495.216187</ele>
  <time>2012-03-23T14:35:33Z</time>
</trkpt>
<trkpt lat="46.473863125" lon="6.805794239">
  <ele>503.868164</ele>
  <time>2012-03-23T14:36:05Z</time>
</trkpt>
<trkpt lat="46.473906040" lon="6.805880070">
  <ele>505.310181</ele>
  <time>2012-03-23T14:36:16Z</time>
</trkpt>
<trkpt lat="46.473884583" lon="6.805837154">
  <ele>508.674683</ele>
  <time>2012-03-23T14:37:10Z</time>
</trkpt>
<trkpt lat="46.473884583" lon="6.805880070">
  <ele>508.674683</ele>
  <time>2012-03-23T14:38:44Z</time>
</trkpt>
<trkpt lat="46.473927498" lon="6.806309223">
  <ele>511.078003</ele>
  <time>2012-03-23T14:39:07Z</time>
</trkpt>
<trkpt lat="46.473798752" lon="6.807060242">
  <ele>516.845947</ele>
  <time>2012-03-23T14:39:42Z</time>
</trkpt>
<trkpt lat="46.473906040" lon="6.807296276">
  <ele>520.210571</ele>
  <time>2012-03-23T14:39:56Z</time>
</trkpt>
<trkpt lat="46.473970413" lon="6.808068752">
  <ele>526.459106</ele>
  <time>2012-03-23T14:40:29Z</time>
</trkpt>
<trkpt lat="46.474142075" lon="6.808240414">
  <ele>528.862549</ele>
  <time>2012-03-23T14:40:42Z</time>
</trkpt>
<trkpt lat="46.474270821" lon="6.808497906">
  <ele>530.785156</ele>
  <time>2012-03-23T14:40:56Z</time>
</trkpt>
<trkpt lat="46.474335194" lon="6.808862686">
  <ele>532.227051</ele>
  <time>2012-03-23T14:41:10Z</time>
</trkpt>
<trkpt lat="46.474442482" lon="6.809999943">
  <ele>532.227051</ele>
  <time>2012-03-23T14:41:43Z</time>
</trkpt>
<trkpt lat="46.474463940" lon="6.810557842">
  <ele>532.227051</ele>
  <time>2012-03-23T14:41:57Z</time>
</trkpt>
<trkpt lat="46.474549770" lon="6.811008453">
  <ele>534.149658</ele>
  <time>2012-03-23T14:42:10Z</time>
</trkpt>
<trkpt lat="46.474699974" lon="6.811330318">
  <ele>538.956299</ele>
  <time>2012-03-23T14:42:25Z</time>
</trkpt>
<trkpt lat="46.474764347" lon="6.811544895">
  <ele>541.840210</ele>
  <time>2012-03-23T14:42:42Z</time>
</trkpt>
<trkpt lat="46.474785805" lon="6.811501980">
  <ele>545.685547</ele>
  <time>2012-03-23T14:43:44Z</time>
</trkpt>
<trkpt lat="46.474785805" lon="6.810836792">
  <ele>545.685547</ele>
  <time>2012-03-23T14:44:06Z</time>
</trkpt>
<trkpt lat="46.474742889" lon="6.809206009">
  <ele>548.569336</ele>
  <time>2012-03-23T14:44:52Z</time>
</trkpt>
<trkpt lat="46.474807262" lon="6.807811260">
  <ele>552.414551</ele>
  <time>2012-03-23T14:45:30Z</time>
</trkpt>
<trkpt lat="46.474914551" lon="6.807682514">
  <ele>553.375977</ele>
  <time>2012-03-23T14:45:38Z</time>
</trkpt>
<trkpt lat="46.475086212" lon="6.807618141">
  <ele>554.337402</ele>
  <time>2012-03-23T14:45:56Z</time>
</trkpt>
<trkpt lat="46.475107670" lon="6.807618141">
  <ele>554.337402</ele>
  <time>2012-03-23T14:45:57Z</time>
</trkpt>
<trkpt lat="46.475172043" lon="6.807703972">
  <ele>556.260010</ele>
  <time>2012-03-23T14:46:02Z</time>
</trkpt>
<trkpt lat="46.475236416" lon="6.808218956">
  <ele>561.066650</ele>
  <time>2012-03-23T14:46:23Z</time>
</trkpt>
<trkpt lat="46.475343704" lon="6.808691025">
  <ele>564.911865</ele>
  <time>2012-03-23T14:46:42Z</time>
</trkpt>
<trkpt lat="46.475536823" lon="6.809120178">
  <ele>568.757080</ele>
  <time>2012-03-23T14:47:02Z</time>
</trkpt>
<trkpt lat="46.475622654" lon="6.809506416">
  <ele>574.044434</ele>
  <time>2012-03-23T14:48:04Z</time>
</trkpt>
<trkpt lat="46.475386620" lon="6.808755398">
  <ele>567.795654</ele>
  <time>2012-03-23T14:48:45Z</time>
</trkpt>
<trkpt lat="46.475300789" lon="6.808111668">
  <ele>562.508545</ele>
  <time>2012-03-23T14:48:50Z</time>
</trkpt>
<trkpt lat="46.475150585" lon="6.807596684">
  <ele>557.702148</ele>
  <time>2012-03-23T14:48:56Z</time>
</trkpt>
<trkpt lat="46.474850178" lon="6.807553768">
  <ele>556.740723</ele>
  <time>2012-03-23T14:49:05Z</time>
</trkpt>
<trkpt lat="46.474893093" lon="6.807231903">
  <ele>558.182861</ele>
  <time>2012-03-23T14:49:15Z</time>
</trkpt>
<trkpt lat="46.475150585" lon="6.805880070">
  <ele>555.779297</ele>
  <time>2012-03-23T14:49:37Z</time>
</trkpt>
<trkpt lat="46.475365162" lon="6.804957390">
  <ele>557.221436</ele>
  <time>2012-03-23T14:49:50Z</time>
</trkpt>
<trkpt lat="46.475687027" lon="6.803863049">
  <ele>564.431152</ele>
  <time>2012-03-23T14:50:19Z</time>
</trkpt>
<trkpt lat="46.475837231" lon="6.803197861">
  <ele>567.315186</ele>
  <time>2012-03-23T14:50:38Z</time>
</trkpt>
<trkpt lat="46.475987434" lon="6.802361012">
  <ele>573.563965</ele>
  <time>2012-03-23T14:51:06Z</time>
</trkpt>
<trkpt lat="46.476030350" lon="6.801974773">
  <ele>577.409180</ele>
  <time>2012-03-23T14:51:22Z</time>
</trkpt>
<trkpt lat="46.476137638" lon="6.801481247">
  <ele>579.331543</ele>
  <time>2012-03-23T14:51:40Z</time>
</trkpt>
<trkpt lat="46.476202011" lon="6.800923347">
  <ele>577.889648</ele>
  <time>2012-03-23T14:51:52Z</time>
</trkpt>
<trkpt lat="46.476223469" lon="6.800279617">
  <ele>576.928467</ele>
  <time>2012-03-23T14:52:01Z</time>
</trkpt>
<trkpt lat="46.476352215" lon="6.800000668">
  <ele>576.447754</ele>
  <time>2012-03-23T14:52:07Z</time>
</trkpt>
<trkpt lat="46.476824284" lon="6.799807549">
  <ele>575.005859</ele>
  <time>2012-03-23T14:52:22Z</time>
</trkpt>
<trkpt lat="46.476802826" lon="6.799399853">
  <ele>575.005859</ele>
  <time>2012-03-23T14:52:32Z</time>
</trkpt>
<trkpt lat="46.476480961" lon="6.798777580">
  <ele>573.083252</ele>
  <time>2012-03-23T14:52:45Z</time>
</trkpt>
<trkpt lat="46.476373672" lon="6.798434258">
  <ele>568.276367</ele>
  <time>2012-03-23T14:52:55Z</time>
</trkpt>
<trkpt lat="46.476223469" lon="6.797189713">
  <ele>557.221436</ele>
  <time>2012-03-23T14:53:11Z</time>
</trkpt>
<trkpt lat="46.476223469" lon="6.796846390">
  <ele>557.221436</ele>
  <time>2012-03-23T14:53:18Z</time>
</trkpt>
<trkpt lat="46.476695538" lon="6.795129776">
  <ele>554.817871</ele>
  <time>2012-03-23T14:53:51Z</time>
</trkpt>
<trkpt lat="46.476781368" lon="6.794614792">
  <ele>551.934082</ele>
  <time>2012-03-23T14:53:58Z</time>
</trkpt>
<trkpt lat="46.476910114" lon="6.794078350">
  <ele>547.608154</ele>
  <time>2012-03-23T14:54:04Z</time>
</trkpt>
<trkpt lat="46.477081776" lon="6.793692112">
  <ele>543.762817</ele>
  <time>2012-03-23T14:54:08Z</time>
</trkpt>
<trkpt lat="46.477317810" lon="6.792469025">
  <ele>535.591553</ele>
  <time>2012-03-23T14:54:17Z</time>
</trkpt>
<trkpt lat="46.477489471" lon="6.792018414">
  <ele>534.630371</ele>
  <time>2012-03-23T14:54:21Z</time>
</trkpt>
<trkpt lat="46.477746964" lon="6.791567802">
  <ele>534.149658</ele>
  <time>2012-03-23T14:54:26Z</time>
</trkpt>
<trkpt lat="46.477832794" lon="6.791052818">
  <ele>534.149658</ele>
  <time>2012-03-23T14:54:31Z</time>
</trkpt>
<trkpt lat="46.477961540" lon="6.790645123">
  <ele>530.785156</ele>
  <time>2012-03-23T14:54:35Z</time>
</trkpt>
<trkpt lat="46.477982998" lon="6.790366173">
  <ele>530.304443</ele>
  <time>2012-03-23T14:54:38Z</time>
</trkpt>
<trkpt lat="46.477940083" lon="6.790130138">
  <ele>529.343140</ele>
  <time>2012-03-23T14:54:41Z</time>
</trkpt>
<trkpt lat="46.477961540" lon="6.789593697">
  <ele>528.381836</ele>
  <time>2012-03-23T14:54:49Z</time>
</trkpt>
<trkpt lat="46.478025913" lon="6.789057255">
  <ele>525.497803</ele>
  <time>2012-03-23T14:55:00Z</time>
</trkpt>
<trkpt lat="46.478347778" lon="6.787962914">
  <ele>527.901001</ele>
  <time>2012-03-23T14:55:23Z</time>
</trkpt>
<trkpt lat="46.478304863" lon="6.787898540">
  <ele>526.939819</ele>
  <time>2012-03-23T14:55:28Z</time>
</trkpt>
<trkpt lat="46.478283405" lon="6.787898540">
  <ele>526.939819</ele>
  <time>2012-03-23T14:55:37Z</time>
</trkpt>
<trkpt lat="46.478326321" lon="6.787898540">
  <ele>532.707764</ele>
  <time>2012-03-23T14:56:34Z</time>
</trkpt>
<trkpt lat="46.477274895" lon="6.789658070">
  <ele>505.310181</ele>
  <time>2012-03-23T14:58:00Z</time>
</trkpt>
<trkpt lat="46.477167606" lon="6.789937019">
  <ele>500.984131</ele>
  <time>2012-03-23T14:58:03Z</time>
</trkpt>
<trkpt lat="46.476995945" lon="6.790215969">
  <ele>496.177734</ele>
  <time>2012-03-23T14:58:07Z</time>
</trkpt>
<trkpt lat="46.476845741" lon="6.790173054">
  <ele>491.851685</ele>
  <time>2012-03-23T14:58:12Z</time>
</trkpt>
<trkpt lat="46.476824284" lon="6.789958477">
  <ele>490.409790</ele>
  <time>2012-03-23T14:58:15Z</time>
</trkpt>
<trkpt lat="46.476867199" lon="6.789765358">
  <ele>491.370972</ele>
  <time>2012-03-23T14:58:19Z</time>
</trkpt>
<trkpt lat="46.477081776" lon="6.789400578">
  <ele>495.696899</ele>
  <time>2012-03-23T14:58:32Z</time>
</trkpt>
<trkpt lat="46.477231979" lon="6.789014339">
  <ele>498.580933</ele>
  <time>2012-03-23T14:58:45Z</time>
</trkpt>
<trkpt lat="46.477382183" lon="6.788370609">
  <ele>498.100342</ele>
  <time>2012-03-23T14:59:03Z</time>
</trkpt>
<trkpt lat="46.477553844" lon="6.787984371">
  <ele>497.619629</ele>
  <time>2012-03-23T14:59:12Z</time>
</trkpt>
<trkpt lat="46.477704048" lon="6.787383556">
  <ele>498.580933</ele>
  <time>2012-03-23T14:59:22Z</time>
</trkpt>
<trkpt lat="46.478025913" lon="6.785774231">
  <ele>495.696899</ele>
  <time>2012-03-23T14:59:53Z</time>
</trkpt>
<trkpt lat="46.478068829" lon="6.785001755">
  <ele>498.100342</ele>
  <time>2012-03-23T15:00:04Z</time>
</trkpt>
<trkpt lat="46.478068829" lon="6.784443855">
  <ele>500.503540</ele>
  <time>2012-03-23T15:00:17Z</time>
</trkpt>
<trkpt lat="46.478133202" lon="6.784121990">
  <ele>502.906738</ele>
  <time>2012-03-23T15:00:30Z</time>
</trkpt>
<trkpt lat="46.478347778" lon="6.783671379">
  <ele>506.271484</ele>
  <time>2012-03-23T15:00:46Z</time>
</trkpt>
<trkpt lat="46.479012966" lon="6.782770157">
  <ele>515.404053</ele>
  <time>2012-03-23T15:01:19Z</time>
</trkpt>
<trkpt lat="46.479334831" lon="6.782491207">
  <ele>519.729858</ele>
  <time>2012-03-23T15:01:36Z</time>
</trkpt>
<trkpt lat="46.479635239" lon="6.782169342">
  <ele>522.613892</ele>
  <time>2012-03-23T15:01:51Z</time>
</trkpt>
<trkpt lat="46.479763985" lon="6.781740189">
  <ele>526.459106</ele>
  <time>2012-03-23T15:02:07Z</time>
</trkpt>
<trkpt lat="46.479442120" lon="6.779916286">
  <ele>522.133179</ele>
  <time>2012-03-23T15:02:43Z</time>
</trkpt>
<trkpt lat="46.479334831" lon="6.779572964">
  <ele>522.133179</ele>
  <time>2012-03-23T15:02:52Z</time>
</trkpt>
<trkpt lat="46.479077339" lon="6.779465675">
  <ele>522.133179</ele>
  <time>2012-03-23T15:03:04Z</time>
</trkpt>
<trkpt lat="46.478884220" lon="6.779079437">
  <ele>515.404053</ele>
  <time>2012-03-23T15:03:10Z</time>
</trkpt>
<trkpt lat="46.478734016" lon="6.777298450">
  <ele>513.000732</ele>
  <time>2012-03-23T15:03:25Z</time>
</trkpt>
<trkpt lat="46.478562355" lon="6.776354313">
  <ele>514.923340</ele>
  <time>2012-03-23T15:03:43Z</time>
</trkpt>
<trkpt lat="46.478691101" lon="6.776139736">
  <ele>513.481445</ele>
  <time>2012-03-23T15:03:50Z</time>
</trkpt>
<trkpt lat="46.478948593" lon="6.776161194">
  <ele>511.558716</ele>
  <time>2012-03-23T15:03:56Z</time>
</trkpt>
<trkpt lat="46.479098797" lon="6.775796413">
  <ele>507.713501</ele>
  <time>2012-03-23T15:04:02Z</time>
</trkpt>
<trkpt lat="46.478927135" lon="6.775474548">
  <ele>505.790894</ele>
  <time>2012-03-23T15:04:07Z</time>
</trkpt>
<trkpt lat="46.478905678" lon="6.775345802">
  <ele>504.829468</ele>
  <time>2012-03-23T15:04:09Z</time>
</trkpt>
<trkpt lat="46.478734016" lon="6.775109768">
  <ele>503.868164</ele>
  <time>2012-03-23T15:04:13Z</time>
</trkpt>
<trkpt lat="46.478626728" lon="6.774852276">
  <ele>504.829468</ele>
  <time>2012-03-23T15:04:17Z</time>
</trkpt>
<trkpt lat="46.478583813" lon="6.774294376">
  <ele>506.271484</ele>
  <time>2012-03-23T15:04:28Z</time>
</trkpt>
<trkpt lat="46.478583813" lon="6.773564816">
  <ele>500.503540</ele>
  <time>2012-03-23T15:04:36Z</time>
</trkpt>
<trkpt lat="46.478691101" lon="6.773157120">
  <ele>500.022949</ele>
  <time>2012-03-23T15:04:40Z</time>
</trkpt>
<trkpt lat="46.479055882" lon="6.772127151">
  <ele>504.348877</ele>
  <time>2012-03-23T15:04:57Z</time>
</trkpt>
<trkpt lat="46.478948593" lon="6.771719456">
  <ele>503.387451</ele>
  <time>2012-03-23T15:05:05Z</time>
</trkpt>
<trkpt lat="46.478369236" lon="6.770775318">
  <ele>504.348877</ele>
  <time>2012-03-23T15:05:29Z</time>
</trkpt>
<trkpt lat="46.478283405" lon="6.770925522">
  <ele>501.945557</ele>
  <time>2012-03-23T15:05:34Z</time>
</trkpt>
<trkpt lat="46.478068829" lon="6.771676540">
  <ele>492.332397</ele>
  <time>2012-03-23T15:05:42Z</time>
</trkpt>
<trkpt lat="46.477618217" lon="6.772406101">
  <ele>488.006470</ele>
  <time>2012-03-23T15:05:52Z</time>
</trkpt>
<trkpt lat="46.477274895" lon="6.773200035">
  <ele>480.315918</ele>
  <time>2012-03-23T15:06:01Z</time>
</trkpt>
<trkpt lat="46.476931572" lon="6.773757935">
  <ele>474.547974</ele>
  <time>2012-03-23T15:06:07Z</time>
</trkpt>
<trkpt lat="46.476631165" lon="6.774530411">
  <ele>468.299316</ele>
  <time>2012-03-23T15:06:15Z</time>
</trkpt>
<trkpt lat="46.476502419" lon="6.774594784">
  <ele>466.376709</ele>
  <time>2012-03-23T15:06:21Z</time>
</trkpt>
<trkpt lat="46.476652622" lon="6.773929596">
  <ele>464.934814</ele>
  <time>2012-03-23T15:06:35Z</time>
</trkpt>
<trkpt lat="46.476631165" lon="6.773929596">
  <ele>481.277222</ele>
  <time>2012-03-23T15:07:25Z</time>
</trkpt>
<trkpt lat="46.476652622" lon="6.773929596">
  <ele>480.796631</ele>
  <time>2012-03-23T15:07:39Z</time>
</trkpt>
<trkpt lat="46.477017403" lon="6.773049831">
  <ele>470.702637</ele>
  <time>2012-03-23T15:07:58Z</time>
</trkpt>
<trkpt lat="46.477339268" lon="6.771676540">
  <ele>458.686157</ele>
  <time>2012-03-23T15:08:09Z</time>
</trkpt>
<trkpt lat="46.477661133" lon="6.771118641">
  <ele>459.647583</ele>
  <time>2012-03-23T15:08:17Z</time>
</trkpt>
<trkpt lat="46.477940083" lon="6.770281792">
  <ele>458.205566</ele>
  <time>2012-03-23T15:08:32Z</time>
</trkpt>
<trkpt lat="46.477982998" lon="6.770067215">
  <ele>458.205566</ele>
  <time>2012-03-23T15:08:35Z</time>
</trkpt>
<trkpt lat="46.478261948" lon="6.769402027">
  <ele>454.840820</ele>
  <time>2012-03-23T15:08:43Z</time>
</trkpt>
<trkpt lat="46.478476524" lon="6.768307686">
  <ele>446.189087</ele>
  <time>2012-03-23T15:08:53Z</time>
</trkpt>
<trkpt lat="46.478798389" lon="6.767127514">
  <ele>440.421265</ele>
  <time>2012-03-23T15:09:09Z</time>
</trkpt>
<trkpt lat="46.479055882" lon="6.766591072">
  <ele>442.343872</ele>
  <time>2012-03-23T15:09:21Z</time>
</trkpt>
<trkpt lat="46.479377747" lon="6.765711308">
  <ele>442.824463</ele>
  <time>2012-03-23T15:09:37Z</time>
</trkpt>
<trkpt lat="46.479828358" lon="6.764295101">
  <ele>440.421265</ele>
  <time>2012-03-23T15:10:01Z</time>
</trkpt>
<trkpt lat="46.480085850" lon="6.763780117">
  <ele>441.863159</ele>
  <time>2012-03-23T15:10:11Z</time>
</trkpt>
<trkpt lat="46.480493546" lon="6.763200760">
  <ele>447.630981</ele>
  <time>2012-03-23T15:10:36Z</time>
</trkpt>
<trkpt lat="46.480836868" lon="6.762428284">
  <ele>445.708374</ele>
  <time>2012-03-23T15:10:55Z</time>
</trkpt>
<trkpt lat="46.481266022" lon="6.761741638">
  <ele>446.189087</ele>
  <time>2012-03-23T15:11:12Z</time>
</trkpt>
<trkpt lat="46.481652260" lon="6.760926247">
  <ele>448.111816</ele>
  <time>2012-03-23T15:11:35Z</time>
</trkpt>
<trkpt lat="46.482038498" lon="6.760261059">
  <ele>451.957031</ele>
  <time>2012-03-23T15:11:49Z</time>
</trkpt>
<trkpt lat="46.482295990" lon="6.760025024">
  <ele>453.879639</ele>
  <time>2012-03-23T15:12:00Z</time>
</trkpt>
<trkpt lat="46.483175755" lon="6.758995056">
  <ele>452.437622</ele>
  <time>2012-03-23T15:12:31Z</time>
</trkpt>
<trkpt lat="46.483669281" lon="6.758394241">
  <ele>451.476318</ele>
  <time>2012-03-23T15:12:47Z</time>
</trkpt>
<trkpt lat="46.483819485" lon="6.758158207">
  <ele>449.553711</ele>
  <time>2012-03-23T15:12:51Z</time>
</trkpt>
<trkpt lat="46.484270096" lon="6.757729053">
  <ele>451.476318</ele>
  <time>2012-03-23T15:13:05Z</time>
</trkpt>
<trkpt lat="46.484720707" lon="6.757106781">
  <ele>450.034424</ele>
  <time>2012-03-23T15:13:19Z</time>
</trkpt>
<trkpt lat="46.485021114" lon="6.756591797">
  <ele>449.553711</ele>
  <time>2012-03-23T15:13:30Z</time>
</trkpt>
<trkpt lat="46.485342979" lon="6.756141186">
  <ele>448.111816</ele>
  <time>2012-03-23T15:13:41Z</time>
</trkpt>
<trkpt lat="46.485600471" lon="6.755518913">
  <ele>443.305054</ele>
  <time>2012-03-23T15:13:51Z</time>
</trkpt>
<trkpt lat="46.485836506" lon="6.755046844">
  <ele>439.459717</ele>
  <time>2012-03-23T15:13:57Z</time>
</trkpt>
<trkpt lat="46.486222744" lon="6.754639149">
  <ele>440.901855</ele>
  <time>2012-03-23T15:14:05Z</time>
</trkpt>
<trkpt lat="46.486501694" lon="6.754403114">
  <ele>443.785767</ele>
  <time>2012-03-23T15:14:15Z</time>
</trkpt>
<trkpt lat="46.486845016" lon="6.754016876">
  <ele>442.343872</ele>
  <time>2012-03-23T15:14:26Z</time>
</trkpt>
<trkpt lat="46.487402916" lon="6.753029823">
  <ele>441.382446</ele>
  <time>2012-03-23T15:14:39Z</time>
</trkpt>
<trkpt lat="46.487660408" lon="6.752514839">
  <ele>443.305054</ele>
  <time>2012-03-23T15:14:50Z</time>
</trkpt>
<trkpt lat="46.488025188" lon="6.751978397">
  <ele>445.708374</ele>
  <time>2012-03-23T15:15:05Z</time>
</trkpt>
<trkpt lat="46.488626003" lon="6.751549244">
  <ele>453.398926</ele>
  <time>2012-03-23T15:15:36Z</time>
</trkpt>
<trkpt lat="46.488776207" lon="6.751227379">
  <ele>457.244263</ele>
  <time>2012-03-23T15:15:51Z</time>
</trkpt>
<trkpt lat="46.488904953" lon="6.750862598">
  <ele>461.570190</ele>
  <time>2012-03-23T15:16:08Z</time>
</trkpt>
<trkpt lat="46.489012241" lon="6.750690937">
  <ele>464.454102</ele>
  <time>2012-03-23T15:16:22Z</time>
</trkpt>
<trkpt lat="46.489548683" lon="6.750411987">
  <ele>475.028687</ele>
  <time>2012-03-23T15:17:05Z</time>
</trkpt>
<trkpt lat="46.489698887" lon="6.750304699">
  <ele>477.431885</ele>
  <time>2012-03-23T15:17:34Z</time>
</trkpt>
<trkpt lat="46.489741802" lon="6.750218868">
  <ele>477.912476</ele>
  <time>2012-03-23T15:18:10Z</time>
</trkpt>
<trkpt lat="46.489977837" lon="6.750047207">
  <ele>476.470581</ele>
  <time>2012-03-23T15:18:18Z</time>
</trkpt>
<trkpt lat="46.490085125" lon="6.749811172">
  <ele>474.547974</ele>
  <time>2012-03-23T15:18:22Z</time>
</trkpt>
<trkpt lat="46.490299702" lon="6.748931408">
  <ele>470.702637</ele>
  <time>2012-03-23T15:18:41Z</time>
</trkpt>
<trkpt lat="46.490514278" lon="6.748695374">
  <ele>470.221924</ele>
  <time>2012-03-23T15:18:48Z</time>
</trkpt>
<trkpt lat="46.490771770" lon="6.748588085">
  <ele>470.221924</ele>
  <time>2012-03-23T15:18:53Z</time>
</trkpt>
<trkpt lat="46.491158009" lon="6.748309135">
  <ele>470.702637</ele>
  <time>2012-03-23T15:19:00Z</time>
</trkpt>
<trkpt lat="46.491329670" lon="6.748051643">
  <ele>471.663940</ele>
  <time>2012-03-23T15:19:04Z</time>
</trkpt>
<trkpt lat="46.491780281" lon="6.747214794">
  <ele>470.221924</ele>
  <time>2012-03-23T15:19:16Z</time>
</trkpt>
<trkpt lat="46.491844654" lon="6.747043133">
  <ele>469.741333</ele>
  <time>2012-03-23T15:19:32Z</time>
</trkpt>
<trkpt lat="46.491823196" lon="6.747043133">
  <ele>469.741333</ele>
  <time>2012-03-23T15:19:39Z</time>
</trkpt>
<trkpt lat="46.491801739" lon="6.746742725">
  <ele>469.260742</ele>
  <time>2012-03-23T15:19:51Z</time>
</trkpt>
<trkpt lat="46.491758823" lon="6.746635437">
  <ele>468.299316</ele>
  <time>2012-03-23T15:19:55Z</time>
</trkpt>
<trkpt lat="46.491973400" lon="6.745648384">
  <ele>465.896118</ele>
  <time>2012-03-23T15:20:19Z</time>
</trkpt>
<trkpt lat="46.492123604" lon="6.745455265">
  <ele>467.338135</ele>
  <time>2012-03-23T15:20:29Z</time>
</trkpt>
<trkpt lat="46.492037773" lon="6.745326519">
  <ele>468.299316</ele>
  <time>2012-03-23T15:20:38Z</time>
</trkpt>
<trkpt lat="46.491887569" lon="6.745347977">
  <ele>465.415527</ele>
  <time>2012-03-23T15:20:48Z</time>
</trkpt>
<trkpt lat="46.491930485" lon="6.745283604">
  <ele>469.741333</ele>
  <time>2012-03-23T15:21:15Z</time>
</trkpt>
<trkpt lat="46.491951942" lon="6.745347977">
  <ele>468.780029</ele>
  <time>2012-03-23T15:21:48Z</time>
</trkpt>
<trkpt lat="46.491994858" lon="6.745326519">
  <ele>467.338135</ele>
  <time>2012-03-23T15:21:59Z</time>
</trkpt>
<trkpt lat="46.492016315" lon="6.745283604">
  <ele>469.260742</ele>
  <time>2012-03-23T15:28:13Z</time>
</trkpt>
<trkpt lat="46.491909027" lon="6.745369434">
  <ele>462.050781</ele>
  <time>2012-03-23T15:59:33Z</time>
</trkpt>
<trkpt lat="46.491973400" lon="6.745326519">
  <ele>467.818726</ele>
  <time>2012-03-23T16:00:30Z</time>
</trkpt>
<trkpt lat="46.491994858" lon="6.745369434">
  <ele>468.780029</ele>
  <time>2012-03-23T16:00:40Z</time>
</trkpt>
<trkpt lat="46.492187977" lon="6.745412350">
  <ele>466.857422</ele>
  <time>2012-03-23T16:01:10Z</time>
</trkpt>
<trkpt lat="46.492509842" lon="6.745069027">
  <ele>468.299316</ele>
  <time>2012-03-23T16:01:23Z</time>
</trkpt>
<trkpt lat="46.492574215" lon="6.744832993">
  <ele>468.299316</ele>
  <time>2012-03-23T16:01:27Z</time>
</trkpt>
<trkpt lat="46.492445469" lon="6.744296551">
  <ele>467.818726</ele>
  <time>2012-03-23T16:01:34Z</time>
</trkpt>
<trkpt lat="46.492230892" lon="6.744146347">
  <ele>468.299316</ele>
  <time>2012-03-23T16:01:39Z</time>
</trkpt>
<trkpt lat="46.492016315" lon="6.743824482">
  <ele>468.780029</ele>
  <time>2012-03-23T16:01:51Z</time>
</trkpt>
<trkpt lat="46.491823196" lon="6.743695736">
  <ele>462.050781</ele>
  <time>2012-03-23T16:01:57Z</time>
</trkpt>
<trkpt lat="46.491823196" lon="6.743202209">
  <ele>453.879639</ele>
  <time>2012-03-23T16:02:05Z</time>
</trkpt>
<trkpt lat="46.491587162" lon="6.741356850">
  <ele>438.498535</ele>
  <time>2012-03-23T16:02:23Z</time>
</trkpt>
<trkpt lat="46.491501331" lon="6.741034985">
  <ele>435.133911</ele>
  <time>2012-03-23T16:02:26Z</time>
</trkpt>
<trkpt lat="46.491436958" lon="6.740369797">
  <ele>426.001343</ele>
  <time>2012-03-23T16:02:32Z</time>
</trkpt>
<trkpt lat="46.491436958" lon="6.740026474">
  <ele>420.714111</ele>
  <time>2012-03-23T16:02:35Z</time>
</trkpt>
<trkpt lat="46.491200924" lon="6.739404202">
  <ele>410.620239</ele>
  <time>2012-03-23T16:02:41Z</time>
</trkpt>
<trkpt lat="46.491072178" lon="6.739232540">
  <ele>408.217041</ele>
  <time>2012-03-23T16:02:43Z</time>
</trkpt>
<trkpt lat="46.491072178" lon="6.738674641">
  <ele>404.852295</ele>
  <time>2012-03-23T16:02:48Z</time>
</trkpt>
<trkpt lat="46.491265297" lon="6.737494469">
  <ele>402.449097</ele>
  <time>2012-03-23T16:02:59Z</time>
</trkpt>
<trkpt lat="46.491286755" lon="6.736700535">
  <ele>402.929688</ele>
  <time>2012-03-23T16:03:07Z</time>
</trkpt>
<trkpt lat="46.491265297" lon="6.735734940">
  <ele>398.123169</ele>
  <time>2012-03-23T16:03:18Z</time>
</trkpt>
<trkpt lat="46.491136551" lon="6.735348701">
  <ele>395.239136</ele>
  <time>2012-03-23T16:03:22Z</time>
</trkpt>
<trkpt lat="46.490943432" lon="6.734318733">
  <ele>394.277954</ele>
  <time>2012-03-23T16:03:32Z</time>
</trkpt>
<trkpt lat="46.490600109" lon="6.733245850">
  <ele>394.758545</ele>
  <time>2012-03-23T16:03:46Z</time>
</trkpt>
<trkpt lat="46.490471363" lon="6.732473373">
  <ele>395.719849</ele>
  <time>2012-03-23T16:03:58Z</time>
</trkpt>
<trkpt lat="46.490321159" lon="6.731829643">
  <ele>397.161743</ele>
  <time>2012-03-23T16:04:10Z</time>
</trkpt>
<trkpt lat="46.489248276" lon="6.728932858">
  <ele>393.797241</ele>
  <time>2012-03-23T16:05:00Z</time>
</trkpt>
<trkpt lat="46.488990784" lon="6.727924347">
  <ele>390.913208</ele>
  <time>2012-03-23T16:05:12Z</time>
</trkpt>
<trkpt lat="46.488947868" lon="6.727623940">
  <ele>390.432617</ele>
  <time>2012-03-23T16:05:19Z</time>
</trkpt>
<trkpt lat="46.489055157" lon="6.727044582">
  <ele>392.355347</ele>
  <time>2012-03-23T16:05:31Z</time>
</trkpt>
<trkpt lat="46.489140987" lon="6.726744175">
  <ele>392.835938</ele>
  <time>2012-03-23T16:05:38Z</time>
</trkpt>
<trkpt lat="46.488947868" lon="6.726722717">
  <ele>392.355347</ele>
  <time>2012-03-23T16:05:44Z</time>
</trkpt>
<trkpt lat="46.488733292" lon="6.726787090">
  <ele>393.316528</ele>
  <time>2012-03-23T16:05:50Z</time>
</trkpt>
<trkpt lat="46.488668919" lon="6.726722717">
  <ele>393.316528</ele>
  <time>2012-03-23T16:05:52Z</time>
</trkpt>
<trkpt lat="46.488583088" lon="6.726400852">
  <ele>394.758545</ele>
  <time>2012-03-23T16:05:59Z</time>
</trkpt>
<trkpt lat="46.488626003" lon="6.726143360">
  <ele>395.239136</ele>
  <time>2012-03-23T16:06:05Z</time>
</trkpt>
<trkpt lat="46.488454342" lon="6.725327969">
  <ele>395.239136</ele>
  <time>2012-03-23T16:06:20Z</time>
</trkpt>
<trkpt lat="46.488389969" lon="6.725156307">
  <ele>395.239136</ele>
  <time>2012-03-23T16:06:23Z</time>
</trkpt>
<trkpt lat="46.488347054" lon="6.724877357">
  <ele>395.719849</ele>
  <time>2012-03-23T16:06:28Z</time>
</trkpt>
<trkpt lat="46.488325596" lon="6.724019051">
  <ele>397.161743</ele>
  <time>2012-03-23T16:06:43Z</time>
</trkpt>
<trkpt lat="46.488218307" lon="6.723546982">
  <ele>400.526489</ele>
  <time>2012-03-23T16:06:56Z</time>
</trkpt>
<trkpt lat="46.488196850" lon="6.722109318">
  <ele>405.333008</ele>
  <time>2012-03-23T16:07:29Z</time>
</trkpt>
<trkpt lat="46.488153934" lon="6.721658707">
  <ele>408.697632</ele>
  <time>2012-03-23T16:07:41Z</time>
</trkpt>
<trkpt lat="46.488175392" lon="6.721186638">
  <ele>407.255615</ele>
  <time>2012-03-23T16:07:51Z</time>
</trkpt>
<trkpt lat="46.488368511" lon="6.720478535">
  <ele>405.333008</ele>
  <time>2012-03-23T16:08:01Z</time>
</trkpt>
<trkpt lat="46.488711834" lon="6.719813347">
  <ele>405.813721</ele>
  <time>2012-03-23T16:08:13Z</time>
</trkpt>
<trkpt lat="46.488947868" lon="6.719448566">
  <ele>405.333008</ele>
  <time>2012-03-23T16:08:22Z</time>
</trkpt>
<trkpt lat="46.489613056" lon="6.718268394">
  <ele>401.968506</ele>
  <time>2012-03-23T16:08:40Z</time>
</trkpt>
<trkpt lat="46.489956379" lon="6.717839241">
  <ele>404.371704</ele>
  <time>2012-03-23T16:08:53Z</time>
</trkpt>
<trkpt lat="46.490278244" lon="6.717495918">
  <ele>405.813721</ele>
  <time>2012-03-23T16:09:06Z</time>
</trkpt>
<trkpt lat="46.490578651" lon="6.717216969">
  <ele>413.023560</ele>
  <time>2012-03-23T16:09:19Z</time>
</trkpt>
<trkpt lat="46.491243839" lon="6.716208458">
  <ele>416.868896</ele>
  <time>2012-03-23T16:09:51Z</time>
</trkpt>
<trkpt lat="46.491672993" lon="6.715414524">
  <ele>411.581665</ele>
  <time>2012-03-23T16:10:04Z</time>
</trkpt>
<trkpt lat="46.491930485" lon="6.714470387">
  <ele>409.178345</ele>
  <time>2012-03-23T16:10:13Z</time>
</trkpt>
<trkpt lat="46.492037773" lon="6.713247299">
  <ele>409.178345</ele>
  <time>2012-03-23T16:10:30Z</time>
</trkpt>
<trkpt lat="46.492338181" lon="6.712625027">
  <ele>406.294312</ele>
  <time>2012-03-23T16:10:39Z</time>
</trkpt>
<trkpt lat="46.492853165" lon="6.712067127">
  <ele>403.410400</ele>
  <time>2012-03-23T16:10:48Z</time>
</trkpt>
<trkpt lat="46.493389606" lon="6.711080074">
  <ele>395.239136</ele>
  <time>2012-03-23T16:10:59Z</time>
</trkpt>
<trkpt lat="46.493818760" lon="6.710672379">
  <ele>396.200562</ele>
  <time>2012-03-23T16:11:07Z</time>
</trkpt>
<trkpt lat="46.494269371" lon="6.710436344">
  <ele>398.123169</ele>
  <time>2012-03-23T16:11:19Z</time>
</trkpt>
<trkpt lat="46.494333744" lon="6.710350513">
  <ele>398.123169</ele>
  <time>2012-03-23T16:11:23Z</time>
</trkpt>
<trkpt lat="46.494441032" lon="6.710264683">
  <ele>401.968506</ele>
  <time>2012-03-23T16:11:27Z</time>
</trkpt>
<trkpt lat="46.494634151" lon="6.709985733">
  <ele>404.371704</ele>
  <time>2012-03-23T16:11:38Z</time>
</trkpt>
<trkpt lat="46.494934559" lon="6.709363461">
  <ele>399.565063</ele>
  <time>2012-03-23T16:11:48Z</time>
</trkpt>
<trkpt lat="46.494977474" lon="6.709191799">
  <ele>398.603760</ele>
  <time>2012-03-23T16:11:52Z</time>
</trkpt>
<trkpt lat="46.494848728" lon="6.708977222">
  <ele>395.719849</ele>
  <time>2012-03-23T16:11:58Z</time>
</trkpt>
<trkpt lat="46.494677067" lon="6.708998680">
  <ele>393.797241</ele>
  <time>2012-03-23T16:12:02Z</time>
</trkpt>
<trkpt lat="46.494419575" lon="6.709363461">
  <ele>394.277954</ele>
  <time>2012-03-23T16:12:23Z</time>
</trkpt>
<trkpt lat="46.494441032" lon="6.709449291">
  <ele>390.432617</ele>
  <time>2012-03-23T16:14:32Z</time>
</trkpt>
</trkseg>
</trk>
</gpx>
